createdAt,value
2023-01-25T00:00:43.352Z,5.55
2023-01-25T00:05:14.275Z,6.28
2023-01-25T00:09:31.879Z,5.50
2023-01-25T00:13:49.463Z,7.40
2023-01-25T00:18:07.035Z,6.55
2023-01-25T00:22:24.640Z,4.40
2023-01-25T00:26:44.168Z,4.82
2023-01-25T00:31:07.836Z,4.93
2023-01-25T00:35:32.370Z,5.43
2023-01-25T00:39:50.130Z,6.20
2023-01-25T00:44:08.099Z,6.30
2023-01-25T00:48:25.124Z,4.78
2023-01-25T00:52:42.934Z,4.60
2023-01-25T00:57:00.747Z,5.22
2023-01-25T01:01:18.481Z,5.32
2023-01-25T01:05:36.683Z,4.57
2023-01-25T01:09:54.384Z,5.88
2023-01-25T01:14:12.291Z,4.97
2023-01-25T01:18:42.614Z,4.70
2023-01-25T01:23:00.096Z,5.90
2023-01-25T01:27:17.822Z,5.70
2023-01-25T01:31:35.465Z,6.85
2023-01-25T01:35:53.219Z,8.18
2023-01-25T01:40:15.767Z,6.57
2023-01-25T01:44:54.502Z,6.78
2023-01-25T01:49:22.396Z,12.27
2023-01-25T01:53:43.585Z,10.75
2023-01-25T01:58:03.531Z,5.38
2023-01-25T02:02:21.874Z,8.90
2023-01-25T02:06:58.348Z,13.07
2023-01-25T02:11:16.426Z,7.25
2023-01-25T02:15:47.796Z,5.53
2023-01-25T02:20:41.243Z,5.43
2023-01-25T02:25:11.377Z,6.68
2023-01-25T02:29:30.178Z,5.45
2023-01-25T02:33:47.828Z,7.80
2023-01-25T02:38:07.059Z,9.52
2023-01-25T02:42:25.020Z,12.55
2023-01-25T02:46:45.166Z,4.05
2023-01-25T02:51:03.403Z,4.65
2023-01-25T02:59:38.421Z,23.47
2023-01-25T03:03:55.847Z,7.88
2023-01-25T03:08:13.527Z,10.83
2023-01-25T03:12:31.102Z,5.97
2023-01-25T03:16:48.553Z,5.82
2023-01-25T03:21:08.859Z,6.97
2023-01-25T03:25:27.153Z,4.47
2023-01-25T03:29:46.064Z,6.32
2023-01-25T03:34:03.552Z,6.32
2023-01-25T03:38:22.164Z,5.07
2023-01-25T03:42:39.651Z,5.10
2023-01-25T03:46:57.211Z,4.93
2023-01-25T03:51:14.806Z,3.88
2023-01-25T03:55:32.432Z,13.20
2023-01-25T03:59:50.131Z,6.30
2023-01-25T04:04:07.599Z,3.95
2023-01-25T04:08:26.519Z,6.27
2023-01-25T04:12:44.003Z,6.40
2023-01-25T04:17:05.623Z,14.80
2023-01-25T04:21:23.300Z,7.13
2023-01-25T04:25:41.421Z,9.00
2023-01-25T04:29:58.841Z,9.98
2023-01-25T04:34:16.470Z,8.63
2023-01-25T04:38:34.020Z,6.00
2023-01-25T04:42:51.724Z,6.30
2023-01-25T04:47:09.209Z,4.70
2023-01-25T04:51:26.738Z,5.50
2023-01-25T04:55:48.118Z,5.60
2023-01-25T05:00:10.456Z,7.63
2023-01-25T05:04:28.041Z,8.63
2023-01-25T05:08:45.610Z,9.10
2023-01-25T05:13:03.118Z,8.48
2023-01-25T05:17:20.753Z,8.43
2023-01-25T05:21:56.833Z,10.88
2023-01-25T05:26:34.074Z,10.98
2023-01-25T05:30:51.542Z,11.57
2023-01-25T05:35:09.900Z,11.88
2023-01-25T05:39:27.592Z,8.70
2023-01-25T05:43:49.381Z,10.00
2023-01-25T05:48:07.046Z,14.13
2023-01-25T05:52:24.467Z,10.40
2023-01-25T05:56:43.390Z,10.57
2023-01-25T06:01:06.835Z,26.50
2023-01-25T06:05:24.434Z,10.20
2023-01-25T06:09:41.938Z,8.70
2023-01-25T06:13:59.459Z,7.10
2023-01-25T06:18:16.936Z,7.50
2023-01-25T06:22:34.557Z,6.18
2023-01-25T06:26:52.135Z,5.75
2023-01-25T06:31:18.464Z,9.53
2023-01-25T06:35:36.097Z,7.55
2023-01-25T06:39:54.344Z,22.33
2023-01-25T06:48:30.686Z,7.10
2023-01-25T06:52:55.155Z,9.70
2023-01-25T06:57:12.950Z,9.52
2023-01-25T07:01:30.885Z,8.43
2023-01-25T07:05:49.783Z,6.45
2023-01-25T07:10:07.888Z,13.55
2023-01-25T07:14:24.969Z,10.73
2023-01-25T07:18:42.872Z,20.63
2023-01-25T07:23:02.241Z,13.70
2023-01-25T07:27:19.854Z,6.15
2023-01-25T07:31:37.560Z,5.85
2023-01-25T07:35:59.545Z,6.20
2023-01-25T07:40:17.301Z,8.98
2023-01-25T07:44:34.853Z,8.63
2023-01-25T07:48:54.194Z,9.23
2023-01-25T07:53:11.765Z,7.82
2023-01-25T07:57:29.310Z,14.30
2023-01-25T08:01:46.900Z,5.32
2023-01-25T08:06:05.934Z,4.97
2023-01-25T08:10:23.442Z,7.53
2023-01-25T08:14:41.088Z,16.70
2023-01-25T08:19:01.369Z,12.10
2023-01-25T08:23:20.655Z,7.40
2023-01-25T08:27:38.289Z,4.18
2023-01-25T08:31:55.769Z,6.57
2023-01-25T08:36:15.558Z,10.32
2023-01-25T08:40:35.194Z,47.70
2023-01-25T08:44:54.521Z,22.05
2023-01-25T08:49:12.054Z,9.82
2023-01-25T08:53:31.946Z,16.08
2023-01-25T08:57:49.664Z,13.35
2023-01-25T09:02:07.481Z,3.45
2023-01-25T09:06:25.218Z,7.20
2023-01-25T09:10:42.878Z,6.78
2023-01-25T09:15:00.320Z,41.10
2023-01-25T09:19:18.087Z,16.48
2023-01-25T09:23:44.418Z,29.85
2023-01-25T09:28:12.224Z,5.07
2023-01-25T09:32:29.824Z,11.57
2023-01-25T09:36:47.929Z,4.32
2023-01-25T09:41:28.135Z,9.10
2023-01-25T09:45:46.275Z,12.68
2023-01-25T09:54:47.547Z,10.85
2023-01-25T09:59:14.822Z,14.13
2023-01-25T10:03:55.581Z,12.40
2023-01-25T10:08:29.090Z,41.58
2023-01-25T10:12:46.821Z,29.75
2023-01-25T10:17:14.328Z,9.65
2023-01-25T10:21:40.489Z,9.57
2023-01-25T10:26:00.351Z,8.18
2023-01-25T10:30:41.769Z,9.10
2023-01-25T10:35:29.238Z,7.22
2023-01-25T10:40:02.063Z,9.65
2023-01-25T10:44:28.179Z,7.28
2023-01-25T10:48:45.954Z,7.93
2023-01-25T10:53:03.524Z,6.90
2023-01-25T10:57:23.104Z,14.68
2023-01-25T11:01:40.930Z,17.17
2023-01-25T11:05:59.550Z,15.68
2023-01-25T11:10:38.159Z,16.67
2023-01-25T11:14:55.644Z,12.07
2023-01-25T11:19:33.038Z,15.00
2023-01-25T11:24:12.087Z,17.02
2023-01-25T11:28:29.569Z,25.02
2023-01-25T11:32:47.929Z,23.05
2023-01-25T11:37:26.799Z,18.70
2023-01-25T11:42:33.822Z,24.65
2023-01-25T11:47:23.541Z,23.93
2023-01-25T11:51:54.950Z,15.30
2023-01-25T11:57:11.708Z,11.55
2023-01-25T12:01:51.582Z,52.88
2023-01-25T12:06:23.808Z,57.95
2023-01-25T12:11:04.635Z,88.85
2023-01-25T12:15:38.633Z,90.10
2023-01-25T12:20:33.270Z,20.42
2023-01-25T12:25:03.628Z,38.13
2023-01-25T12:29:51.270Z,48.67
2023-01-25T12:34:19.804Z,101.70
2023-01-25T12:39:00.518Z,55.80
2023-01-25T12:43:40.145Z,83.25
2023-01-25T12:48:03.548Z,62.08
2023-01-25T12:52:26.568Z,27.55
2023-01-25T12:57:19.626Z,33.10
2023-01-25T13:02:01.500Z,107.03
2023-01-25T13:06:37.182Z,10.13
2023-01-25T13:11:11.675Z,57.15
2023-01-25T13:15:40.455Z,140.05
2023-01-25T13:19:58.911Z,93.88
2023-01-25T13:24:22.670Z,64.00
2023-01-25T13:28:45.904Z,41.28
2023-01-25T13:33:07.461Z,109.70
2023-01-25T13:37:32.210Z,63.03
2023-01-25T13:42:18.981Z,59.00
2023-01-25T13:46:37.064Z,41.35
2023-01-25T13:51:11.204Z,91.53
2023-01-25T13:55:30.073Z,62.38
2023-01-25T13:59:49.632Z,81.75
2023-01-25T14:04:12.361Z,91.72
2023-01-25T14:08:31.453Z,41.78
2023-01-25T14:12:49.847Z,44.28
2023-01-25T14:17:21.067Z,87.55
2023-01-25T14:21:39.804Z,43.08
2023-01-25T14:25:59.740Z,45.17
2023-01-25T14:30:22.703Z,48.13
2023-01-25T14:34:40.447Z,61.13
2023-01-25T14:38:58.309Z,25.67
2023-01-25T14:43:17.706Z,65.30
2023-01-25T14:47:35.915Z,43.63
2023-01-25T14:52:14.734Z,41.67
2023-01-25T14:56:34.119Z,24.85
2023-01-25T15:00:58.031Z,39.80
2023-01-25T15:05:16.227Z,73.85
2023-01-25T15:09:42.501Z,70.72
2023-01-25T15:14:13.786Z,25.70
2023-01-25T15:18:56.081Z,32.67
2023-01-25T15:23:31.583Z,55.42
2023-01-25T15:27:49.483Z,46.80
2023-01-25T15:32:20.927Z,157.57
2023-01-25T15:36:38.567Z,72.07
2023-01-25T15:41:01.533Z,21.92
2023-01-25T15:50:01.719Z,60.35
2023-01-25T15:54:19.400Z,35.13
2023-01-25T15:58:41.115Z,14.57
2023-01-25T16:02:58.679Z,10.30
2023-01-25T16:07:55.377Z,10.57
2023-01-25T16:12:29.111Z,15.38
2023-01-25T16:16:53.194Z,24.48
2023-01-25T16:21:13.860Z,19.08
2023-01-25T16:25:31.523Z,22.05
2023-01-25T16:29:48.986Z,25.30
2023-01-25T16:34:06.936Z,18.55
2023-01-25T16:38:24.364Z,15.20
2023-01-25T16:42:42.067Z,16.37
2023-01-25T16:46:59.725Z,16.92
2023-01-25T16:51:24.919Z,13.38
2023-01-25T16:55:42.648Z,13.98
2023-01-25T17:00:02.837Z,17.25
2023-01-25T17:04:20.862Z,12.32
2023-01-25T17:08:38.529Z,13.27
2023-01-25T17:12:55.699Z,9.17
2023-01-25T17:17:13.182Z,14.60
2023-01-25T17:21:32.780Z,14.27
2023-01-25T17:25:50.227Z,12.63
2023-01-25T17:30:09.303Z,8.43
2023-01-25T17:34:27.090Z,24.73
2023-01-25T17:38:44.985Z,113.37
2023-01-25T17:43:04.320Z,61.85
2023-01-25T17:47:21.865Z,40.70
2023-01-25T17:51:39.629Z,58.47
2023-01-25T17:56:03.486Z,51.03
2023-01-25T18:00:21.394Z,105.53
2023-01-25T18:04:39.519Z,74.70
2023-01-25T18:09:03.105Z,20.27
2023-01-25T18:13:20.807Z,8.30
2023-01-25T18:17:39.365Z,47.33
2023-01-25T18:21:57.582Z,12.77
2023-01-25T18:30:41.606Z,8.68
2023-01-25T18:34:59.675Z,9.88
2023-01-25T18:39:17.204Z,31.17
2023-01-25T18:43:35.974Z,19.15
2023-01-25T18:47:53.694Z,18.50
2023-01-25T18:52:12.128Z,25.92
2023-01-25T18:56:31.840Z,26.60
2023-01-25T19:00:49.246Z,21.85
2023-01-25T19:05:07.600Z,59.95
2023-01-25T19:09:25.887Z,27.13
2023-01-25T19:13:44.774Z,26.75
2023-01-25T19:18:02.327Z,9.15
2023-01-25T19:22:20.419Z,9.65
2023-01-25T19:30:56.205Z,9.90
2023-01-25T19:39:31.348Z,8.77
2023-01-25T19:43:54.264Z,7.50
2023-01-25T19:48:11.787Z,8.77
2023-01-25T19:52:29.524Z,6.90
2023-01-25T19:56:49.579Z,12.40
2023-01-25T20:01:23.129Z,12.15
2023-01-25T20:05:40.658Z,22.63
2023-01-25T20:09:58.315Z,60.58
2023-01-25T20:14:16.067Z,14.85
2023-01-25T20:18:34.542Z,9.27
2023-01-25T20:22:53.395Z,10.45
2023-01-25T20:27:10.958Z,11.30
2023-01-25T20:31:37.762Z,88.95
2023-01-25T20:36:05.471Z,24.35
2023-01-25T20:40:23.113Z,19.80
2023-01-25T20:44:40.511Z,44.13
2023-01-25T20:48:58.066Z,319.67
2023-01-25T20:53:16.625Z,248.27
2023-01-25T20:57:34.111Z,65.78
2023-01-25T21:01:51.780Z,165.55
2023-01-25T21:06:10.018Z,293.90
2023-01-25T21:14:45.087Z,137.48
2023-01-25T21:19:07.236Z,189.05
2023-01-25T21:23:24.680Z,115.82
2023-01-25T21:27:42.741Z,275.97
2023-01-25T21:32:00.245Z,85.93
2023-01-25T21:36:19.354Z,50.28
2023-01-25T21:40:36.804Z,17.92
2023-01-25T21:45:13.112Z,20.42
2023-01-25T21:49:49.445Z,12.63
2023-01-25T21:54:07.083Z,10.90
2023-01-25T21:58:24.530Z,14.35
2023-01-25T22:02:43.790Z,138.25
2023-01-25T22:07:05.054Z,110.57
2023-01-25T22:11:23.032Z,18.88
2023-01-25T22:15:40.648Z,30.35
2023-01-25T22:19:58.263Z,10.52
2023-01-25T22:24:16.492Z,207.68
2023-01-25T22:28:55.376Z,26.63
2023-01-25T22:33:12.974Z,145.63
2023-01-25T22:37:30.588Z,112.72
2023-01-25T22:41:48.078Z,257.45
2023-01-25T22:46:08.815Z,231.98
2023-01-25T22:50:26.278Z,140.80
2023-01-25T22:54:43.842Z,39.33
2023-01-25T22:59:01.928Z,105.13
2023-01-25T23:03:19.552Z,32.50
2023-01-25T23:07:37.052Z,23.65
2023-01-25T23:11:54.612Z,19.77
2023-01-25T23:16:12.232Z,22.92
2023-01-25T23:20:30.341Z,67.88
2023-01-25T23:24:47.884Z,139.98
2023-01-25T23:29:09.253Z,22.05
2023-01-25T23:33:27.326Z,20.15
2023-01-25T23:37:47.068Z,16.10
2023-01-25T23:42:04.841Z,14.80
2023-01-25T23:46:23.819Z,12.07
2023-01-25T23:50:41.354Z,18.02
2023-01-25T23:54:58.971Z,37.17
2023-01-25T23:59:16.372Z,19.10
